createdAt,value
2022-08-17T09:32:16.515Z,303.75
2022-08-17T09:33:16.489Z,309.38
2022-08-17T09:34:16.485Z,320.62
2022-08-17T09:35:16.471Z,331.88
2022-08-17T09:36:16.485Z,320.62
2022-08-17T09:37:16.435Z,309.38
2022-08-17T09:38:16.431Z,303.75
2022-08-17T09:39:16.436Z,292.50
2022-08-17T09:40:16.449Z,286.88
2022-08-17T09:41:16.396Z,281.25
2022-08-17T09:42:16.378Z,281.25
2022-08-17T09:43:16.366Z,286.88
2022-08-17T09:44:22.910Z,298.12
2022-08-17T09:45:17.326Z,309.38
2022-08-17T09:46:16.359Z,315.00
2022-08-17T09:47:16.307Z,320.62
2022-08-17T09:48:18.108Z,320.62
2022-08-17T09:49:16.283Z,320.62
2022-08-17T09:50:16.337Z,315.00
2022-08-17T09:51:16.282Z,309.38
2022-08-17T09:52:16.246Z,309.38
2022-08-17T09:53:16.226Z,309.38
2022-08-17T09:54:37.973Z,298.12
2022-08-17T09:55:17.206Z,281.25
2022-08-17T09:56:16.208Z,270.00
2022-08-17T09:57:29.796Z,264.38
2022-08-17T09:58:17.177Z,258.75
2022-08-17T09:59:16.160Z,258.75
2022-08-17T10:00:16.558Z,253.12
2022-08-17T10:01:16.189Z,241.88
2022-08-17T10:02:16.138Z,225.00
2022-08-17T10:03:16.119Z,213.75
2022-08-17T10:04:18.778Z,202.50
2022-08-17T10:05:16.107Z,191.25
2022-08-17T10:06:21.771Z,180.00
2022-08-17T10:07:17.049Z,174.38
2022-08-17T10:08:16.041Z,174.38
2022-08-17T10:09:16.028Z,168.75
2022-08-17T10:10:16.026Z,163.12
2022-08-17T10:11:16.039Z,163.12
2022-08-17T10:12:17.362Z,163.12
2022-08-17T10:13:15.979Z,163.12
2022-08-17T10:14:37.412Z,163.12
2022-08-17T10:15:17.469Z,168.75
2022-08-17T10:16:15.950Z,168.75
2022-08-17T10:17:15.920Z,174.38
2022-08-17T10:18:15.911Z,180.00
2022-08-17T10:19:15.900Z,185.62
2022-08-17T10:20:15.918Z,185.62
2022-08-17T10:21:15.909Z,191.25
2022-08-17T10:22:35.150Z,191.25
2022-08-17T10:23:16.842Z,191.25
2022-08-17T10:24:15.840Z,191.25
2022-08-17T10:25:21.857Z,191.25
2022-08-17T10:26:16.824Z,191.25
2022-08-17T10:27:15.815Z,196.88
2022-08-17T10:28:19.941Z,202.50
2022-08-17T10:29:15.769Z,208.12
2022-08-17T10:30:15.762Z,213.75
2022-08-17T10:31:34.249Z,219.38
2022-08-17T10:32:16.731Z,219.38
2022-08-17T10:33:15.726Z,225.00
2022-08-17T10:34:15.702Z,225.00
2022-08-17T10:35:15.689Z,225.00
2022-08-17T10:36:15.714Z,225.00
2022-08-17T10:37:15.682Z,219.38
2022-08-17T10:38:15.672Z,219.38
2022-08-17T10:39:15.642Z,219.38
2022-08-17T10:40:15.792Z,219.38
2022-08-17T10:41:15.611Z,219.38
2022-08-17T10:42:15.668Z,219.38
2022-08-17T10:43:16.582Z,219.38
